Time;durP1;ratioP1;P1;durP2;ratioP2;P2;SDS_P1;SDS_P2;PMS_P1;PMS_P2;Temp;Humidity;BMP_temperature;BMP_pressure;BME280_temperature;BME280_humidity;BME280_pressure;Samples;Min_cycle;Max_cycle;Signal;HPM_P1;HPM_P2
2024/02/03 00:00:38;;;;;;;5.22;1.55;;;22.70;42.40;;;;;;5055386;28;20253;-53
2024/02/03 00:03:04;;;;;;;5.32;1.58;;;22.70;42.40;;;;;;5056092;28;20655;-53
2024/02/03 00:05:31;;;;;;;4.47;1.45;;;22.60;42.40;;;;;;5055678;28;20660;-57
2024/02/03 00:07:58;;;;;;;7.65;1.20;;;22.70;42.50;;;;;;5055516;28;20211;-54
2024/02/03 00:10:25;;;;;;;7.05;1.40;;;22.70;42.50;;;;;;5055632;28;20195;-58
2024/02/03 00:12:52;;;;;;;7.80;1.40;;;22.70;42.50;;;;;;5055953;28;20270;-54
2024/02/03 00:15:24;;;;;;;4.32;1.10;;;22.70;42.50;;;;;;5055457;28;20187;-53
2024/02/03 00:17:51;;;;;;;5.35;1.50;;;22.60;42.40;;;;;;5055533;28;20231;-52
2024/02/03 00:20:18;;;;;;;3.88;1.33;;;22.70;42.50;;;;;;5055700;28;20198;-52
2024/02/03 00:22:50;;;;;;;5.45;1.60;;;22.70;42.50;;;;;;5055284;28;20220;-53
2024/02/03 00:25:18;;;;;;;5.70;1.42;;;22.70;43.20;;;;;;5055653;28;20192;-53
2024/02/03 00:27:45;;;;;;;6.03;1.63;;;22.70;42.50;;;;;;5055398;28;20211;-52
2024/02/03 00:30:12;;;;;;;5.85;1.40;;;22.70;42.40;;;;;;5055152;28;20184;-54
2024/02/03 00:32:41;;;;;;;5.85;1.55;;;22.80;42.40;;;;;;5055589;28;20277;-54
2024/02/03 00:35:08;;;;;;;5.95;1.40;;;22.80;42.30;;;;;;5055326;28;20191;-52
2024/02/03 00:37:35;;;;;;;10.18;1.65;;;22.90;42.30;;;;;;5055023;28;20300;-54
2024/02/03 00:40:04;;;;;;;4.30;1.75;;;22.90;42.20;;;;;;5055296;28;20196;-56
2024/02/03 00:42:31;;;;;;;4.13;1.52;;;22.90;42.20;;;;;;5055347;28;20215;-51
2024/02/03 00:44:58;;;;;;;8.88;1.65;;;22.90;42.10;;;;;;5054839;28;20246;-55
2024/02/03 00:47:25;;;;;;;5.28;1.30;;;22.90;42.10;;;;;;5055263;28;20273;-51
2024/02/03 00:49:54;;;;;;;6.60;1.80;;;22.90;42.10;;;;;;5054849;28;20277;-55
2024/02/03 00:52:21;;;;;;;5.82;1.25;;;22.90;42.10;;;;;;5054943;28;20211;-51
2024/02/03 00:54:48;;;;;;;7.18;1.20;;;23.00;42.10;;;;;;5054971;28;20195;-49
2024/02/03 00:57:15;;;;;;;6.20;2.05;;;22.90;42.00;;;;;;5054622;28;20818;-54
2024/02/03 00:59:42;;;;;;;9.10;1.40;;;22.90;42.00;;;;;;5053492;28;20253;-55
2024/02/03 01:02:09;;;;;;;6.38;1.70;;;22.90;42.10;;;;;;5054832;28;20280;-50
2024/02/03 01:04:36;;;;;;;4.22;1.30;;;22.80;42.00;;;;;;5054792;28;20234;-53
2024/02/03 01:07:06;;;;;;;7.85;1.70;;;22.80;42.10;;;;;;5054607;28;20276;-51
2024/02/03 01:09:33;;;;;;;5.72;1.45;;;22.80;42.20;;;;;;5054777;28;20184;-54
2024/02/03 01:12:01;;;;;;;6.38;1.50;;;22.70;42.10;;;;;;5054771;28;20297;-52
2024/02/03 01:14:28;;;;;;;5.95;1.58;;;22.70;42.10;;;;;;5054127;28;20192;-51
2024/02/03 01:16:55;;;;;;;6.28;1.48;;;22.70;42.20;;;;;;5054455;28;20227;-50
2024/02/03 01:19:22;;;;;;;8.02;2.10;;;22.70;42.20;;;;;;5054331;28;20184;-53
2024/02/03 01:21:49;;;;;;;6.00;1.40;;;22.70;42.30;;;;;;5054508;28;20281;-53
2024/02/03 01:24:17;;;;;;;8.90;1.52;;;22.70;42.30;;;;;;5054221;28;20541;-52
2024/02/03 01:26:44;;;;;;;10.95;1.70;;;22.70;42.30;;;;;;5054221;28;20230;-52
2024/02/03 01:29:11;;;;;;;6.50;1.60;;;22.70;42.20;;;;;;5054122;28;20631;-49
2024/02/03 01:31:39;;;;;;;6.50;1.45;;;22.70;42.30;;;;;;5051944;28;20241;-55
2024/02/03 01:34:06;;;;;;;5.35;1.65;;;22.70;42.30;;;;;;5054266;28;20214;-53
2024/02/03 01:36:33;;;;;;;5.22;1.58;;;22.60;42.20;;;;;;5053762;28;20653;-52
2024/02/03 01:39:00;;;;;;;4.72;1.50;;;22.70;42.30;;;;;;5053696;28;20188;-52
2024/02/03 01:41:29;;;;;;;7.30;2.03;;;22.70;42.30;;;;;;5054147;28;20207;-52
2024/02/03 01:43:56;;;;;;;8.60;1.67;;;22.70;42.30;;;;;;5054231;28;20199;-52
2024/02/03 01:46:23;;;;;;;3.80;1.15;;;22.80;42.20;;;;;;5053562;28;20196;-53
2024/02/03 01:48:50;;;;;;;5.55;1.30;;;22.80;42.10;;;;;;5054052;28;20200;-53
2024/02/03 01:51:20;;;;;;;6.82;1.55;;;22.90;42.10;;;;;;5053553;28;20235;-53
2024/02/03 01:53:47;;;;;;;7.38;1.48;;;22.80;42.10;;;;;;5053535;28;20724;-54
2024/02/03 01:56:17;;;;;;;7.97;1.20;;;22.90;42.10;;;;;;5053934;28;20187;-54
2024/02/03 01:58:45;;;;;;;6.40;1.30;;;22.90;42.00;;;;;;5053481;28;20713;-51
2024/02/03 02:01:13;;;;;;;5.35;1.40;;;22.90;42.00;;;;;;5053377;28;20192;-53
2024/02/03 02:03:40;;;;;;;5.22;1.35;;;22.90;42.00;;;;;;5053666;28;20247;-51
2024/02/03 02:06:08;;;;;;;4.07;1.30;;;22.90;41.90;;;;;;5053361;28;20242;-52
2024/02/03 02:08:37;;;;;;;5.15;1.38;;;22.90;41.80;;;;;;5053499;28;20216;-53
2024/02/03 02:11:04;;;;;;;9.07;1.50;;;22.90;41.80;;;;;;5052800;28;20195;-54
2024/02/03 02:13:31;;;;;;;4.78;1.30;;;22.90;41.80;;;;;;5053410;28;20728;-53
2024/02/03 02:16:00;;;;;;;7.25;1.50;;;22.80;41.80;;;;;;5053132;28;20446;-52
2024/02/03 02:18:27;;;;;;;5.97;1.85;;;22.80;41.90;;;;;;5053557;28;20227;-50
2024/02/03 02:20:55;;;;;;;7.05;1.70;;;22.80;41.90;;;;;;5053414;28;20241;-55
2024/02/03 02:23:22;;;;;;;7.45;1.70;;;22.80;42.00;;;;;;5052616;28;20219;-50
2024/02/03 02:25:49;;;;;;;7.72;1.55;;;22.80;42.00;;;;;;5053326;28;20196;-56
2024/02/03 02:28:17;;;;;;;10.88;1.67;;;22.70;42.00;;;;;;5053483;28;20216;-54
2024/02/03 02:30:43;;;;;;;3.38;1.13;;;22.70;42.00;;;;;;5052880;28;20192;-52
2024/02/03 02:33:10;;;;;;;5.43;1.33;;;22.70;42.00;;;;;;5053338;28;20219;-54
2024/02/03 02:35:37;;;;;;;8.75;1.52;;;22.70;42.00;;;;;;5053037;28;20253;-52
2024/02/03 02:38:06;;;;;;;9.30;1.90;;;22.70;42.00;;;;;;5052847;28;20318;-52
2024/02/03 02:40:33;;;;;;;6.75;1.95;;;22.70;42.00;;;;;;5053064;28;20188;-55
2024/02/03 02:43:00;;;;;;;10.68;2.30;;;22.70;42.00;;;;;;5052989;28;20222;-51
2024/02/03 02:45:27;;;;;;;6.25;1.65;;;22.70;42.00;;;;;;5052532;28;20245;-54
2024/02/03 02:47:54;;;;;;;9.55;2.13;;;22.60;41.90;;;;;;5053021;28;20273;-51
2024/02/03 02:50:21;;;;;;;9.15;1.70;;;22.70;42.00;;;;;;5052505;28;20223;-52
2024/02/03 02:52:48;;;;;;;6.72;1.42;;;22.70;42.00;;;;;;5052258;28;20689;-53
2024/02/03 02:55:17;;;;;;;5.03;1.60;;;22.60;41.90;;;;;;5052828;28;20192;-51
2024/02/03 02:57:44;;;;;;;9.23;1.70;;;22.70;42.00;;;;;;5052378;28;20655;-53
2024/02/03 03:00:12;;;;;;;9.82;1.98;;;22.70;41.90;;;;;;5052281;28;20196;-53
2024/02/03 03:02:39;;;;;;;6.25;2.15;;;22.80;42.00;;;;;;5052392;28;20215;-55
2024/02/03 03:05:07;;;;;;;6.57;1.60;;;22.80;41.80;;;;;;5052350;28;20654;-52
2024/02/03 03:07:34;;;;;;;8.40;1.88;;;22.80;41.80;;;;;;5052210;28;20265;-54
2024/02/03 03:10:02;;;;;;;11.00;2.00;;;22.80;41.80;;;;;;5052572;28;20265;-52
2024/02/03 03:12:31;;;;;;;10.27;2.00;;;22.80;41.70;;;;;;5052566;28;20302;-54
2024/02/03 03:14:58;;;;;;;8.90;1.80;;;22.90;41.80;;;;;;5051977;28;20246;-53
2024/02/03 03:17:25;;;;;;;6.85;1.75;;;22.90;41.60;;;;;;5052067;28;20681;-51
2024/02/03 03:19:52;;;;;;;9.73;2.58;;;22.90;41.60;;;;;;5052451;28;20215;-51
2024/02/03 03:22:19;;;;;;;15.20;2.28;;;22.90;41.60;;;;;;5051000;28;20255;-53
2024/02/03 03:24:46;;;;;;;14.05;2.42;;;22.90;41.60;;;;;;5052439;28;20198;-51
2024/02/03 03:27:13;;;;;;;7.22;1.75;;;22.90;41.60;;;;;;5052297;28;20298;-51
2024/02/03 03:29:43;;;;;;;11.65;2.50;;;22.90;41.60;;;;;;5051909;28;20192;-51
2024/02/03 03:32:11;;;;;;;6.78;1.75;;;22.80;41.60;;;;;;5052236;28;20220;-52
2024/02/03 03:34:38;;;;;;;6.60;1.52;;;22.80;41.70;;;;;;5052275;28;20229;-53
2024/02/03 03:37:05;;;;;;;6.72;1.90;;;22.70;41.60;;;;;;5051832;28;20245;-54
2024/02/03 03:39:32;;;;;;;8.63;1.60;;;22.70;41.70;;;;;;5051972;28;20202;-54
2024/02/03 03:41:59;;;;;;;6.78;1.83;;;22.70;41.70;;;;;;5052127;28;20277;-51
2024/02/03 03:44:26;;;;;;;5.60;1.70;;;22.70;41.70;;;;;;5051737;28;20234;-52
2024/02/03 03:46:55;;;;;;;4.93;1.63;;;22.70;41.80;;;;;;5051958;28;20184;-50
2024/02/03 03:49:21;;;;;;;5.50;1.55;;;22.70;41.70;;;;;;5051994;28;20246;-51
2024/02/03 03:51:48;;;;;;;5.15;1.40;;;22.70;41.70;;;;;;5051704;28;20187;-53
2024/02/03 03:54:15;;;;;;;7.43;1.67;;;22.70;41.70;;;;;;5051981;28;20645;-55
2024/02/03 03:56:42;;;;;;;6.80;1.73;;;22.70;41.80;;;;;;5051973;28;20196;-49
2024/02/03 03:59:09;;;;;;;6.68;1.90;;;22.70;41.70;;;;;;5051606;28;20306;-51
2024/02/03 04:01:36;;;;;;;6.45;1.60;;;22.70;41.70;;;;;;5051927;28;20220;-53
2024/02/03 04:04:04;;;;;;;5.35;1.80;;;22.70;41.70;;;;;;5051974;28;20286;-54
2024/02/03 04:06:31;;;;;;;5.93;1.20;;;22.70;41.70;;;;;;5051578;28;20196;-54
2024/02/03 04:08:58;;;;;;;8.23;1.23;;;22.60;41.60;;;;;;5051567;28;20573;-50
2024/02/03 04:11:25;;;;;;;5.93;1.50;;;22.60;41.70;;;;;;5051865;28;20214;-53
2024/02/03 04:13:52;;;;;;;8.13;1.50;;;22.70;41.80;;;;;;5051353;28;20708;-53
2024/02/03 04:16:19;;;;;;;5.22;1.33;;;22.70;41.70;;;;;;5051903;28;20274;-54
2024/02/03 04:18:46;;;;;;;3.90;1.25;;;22.80;41.70;;;;;;5051632;28;20243;-51
2024/02/03 04:21:14;;;;;;;7.43;1.55;;;22.80;41.60;;;;;;5051507;28;20223;-53
2024/02/03 04:23:41;;;;;;;3.75;1.40;;;22.80;41.60;;;;;;5051678;28;20310;-55
2024/02/03 04:26:08;;;;;;;5.00;1.63;;;22.80;41.60;;;;;;5051859;28;20602;-55
2024/02/03 04:28:35;;;;;;;3.88;1.35;;;22.80;41.50;;;;;;5051551;28;20219;-55
2024/02/03 04:31:04;;;;;;;5.75;1.58;;;22.80;41.50;;;;;;5051421;28;20555;-54
2024/02/03 04:33:32;;;;;;;3.15;1.30;;;22.80;41.50;;;;;;5053294;28;20219;-52
2024/02/03 04:35:58;;;;;;;6.30;1.60;;;22.80;41.40;;;;;;5054795;28;20188;-52
2024/02/03 04:38:27;;;;;;;3.05;1.10;;;22.90;41.50;;;;;;5055426;28;20238;-52
2024/02/03 04:40:54;;;;;;;4.72;1.10;;;22.80;41.30;;;;;;5055393;28;20187;-52
2024/02/03 04:43:21;;;;;;;3.72;1.27;;;22.80;41.40;;;;;;5055029;28;20652;-49
2024/02/03 04:45:48;;;;;;;5.68;1.15;;;22.80;41.40;;;;;;5055268;28;20188;-56
2024/02/03 04:48:15;;;;;;;7.45;1.50;;;22.80;41.50;;;;;;5055056;28;20222;-53
2024/02/03 04:50:42;;;;;;;5.72;1.20;;;22.70;41.50;;;;;;5054471;28;20231;-51
2024/02/03 04:53:09;;;;;;;4.40;1.20;;;22.70;41.60;;;;;;5055037;28;20220;-53
2024/02/03 04:55:37;;;;;;;4.20;1.23;;;22.70;41.60;;;;;;5055034;28;20195;-54
2024/02/03 04:58:05;;;;;;;5.00;1.13;;;22.60;41.60;;;;;;5054486;28;20235;-53
2024/02/03 05:00:32;;;;;;;3.65;1.20;;;22.60;41.60;;;;;;5054989;28;20191;-51
2024/02/03 05:02:59;;;;;;;3.70;1.25;;;22.60;41.60;;;;;;5054789;28;20219;-49
2024/02/03 05:05:26;;;;;;;5.38;1.20;;;22.60;41.60;;;;;;5054534;28;20272;-50
2024/02/03 05:07:53;;;;;;;4.57;1.30;;;22.60;41.60;;;;;;5054727;28;20265;-53
2024/02/03 05:10:20;;;;;;;3.13;1.10;;;22.60;41.60;;;;;;5054795;28;20187;-53
2024/02/03 05:12:49;;;;;;;6.93;1.40;;;22.60;41.60;;;;;;5054294;28;20302;-53
2024/02/03 05:15:18;;;;;;;4.88;1.42;;;22.60;41.70;;;;;;5054704;28;20198;-51
2024/02/03 05:17:45;;;;;;;5.53;1.10;;;22.60;41.70;;;;;;5054577;28;20249;-54
2024/02/03 05:20:12;;;;;;;5.40;1.20;;;22.60;41.70;;;;;;5054244;28;20227;-50
2024/02/03 05:22:39;;;;;;;4.10;1.20;;;22.60;41.70;;;;;;5054259;28;20216;-54
2024/02/03 05:25:07;;;;;;;3.35;1.10;;;22.60;41.80;;;;;;5054277;28;20191;-52
2024/02/03 05:27:34;;;;;;;6.75;1.30;;;22.60;41.70;;;;;;5054060;28;20222;-52
2024/02/03 05:30:02;;;;;;;6.53;1.40;;;22.70;41.70;;;;;;5054120;28;20606;-57
2024/02/03 05:32:31;;;;;;;9.25;2.15;;;22.70;41.60;;;;;;5053946;28;20716;-50
2024/02/03 05:34:57;;;;;;;6.53;1.58;;;22.80;41.70;;;;;;5053986;28;20272;-54
2024/02/03 05:37:24;;;;;;;5.10;1.55;;;22.80;41.70;;;;;;5054169;28;20303;-55
2024/02/03 05:39:51;;;;;;;5.68;1.48;;;22.80;41.60;;;;;;5054162;28;20219;-55
2024/02/03 05:42:18;;;;;;;5.40;1.30;;;22.80;41.60;;;;;;5053774;28;20276;-55
2024/02/03 05:44:45;;;;;;;6.10;1.50;;;22.80;41.60;;;;;;5053419;28;20278;-56
2024/02/03 05:47:13;;;;;;;5.00;1.20;;;22.80;41.50;;;;;;5053958;28;20303;-54
2024/02/03 05:49:41;;;;;;;5.13;1.20;;;22.90;41.50;;;;;;5053320;28;20310;-53
2024/02/03 05:52:08;;;;;;;7.53;1.73;;;22.90;41.50;;;;;;5054075;28;20226;-50
2024/02/03 05:54:35;;;;;;;10.75;2.08;;;22.80;42.10;;;;;;5053822;28;20286;-53
2024/02/03 05:57:02;;;;;;;7.82;1.73;;;22.80;41.40;;;;;;5053531;28;20188;-52
2024/02/03 05:59:28;;;;;;;6.93;1.60;;;22.80;41.50;;;;;;5053702;28;20224;-52
2024/02/03 06:01:55;;;;;;;8.88;1.25;;;22.80;41.60;;;;;;5053736;28;20184;-51
2024/02/03 06:04:24;;;;;;;8.20;2.20;;;22.70;41.60;;;;;;5052794;28;20249;-52
2024/02/03 06:06:51;;;;;;;11.52;1.90;;;22.70;41.60;;;;;;5044879;28;20733;-55
2024/02/03 06:09:18;;;;;;;6.95;1.50;;;22.70;41.70;;;;;;5053697;28;20573;-55
2024/02/03 06:11:44;;;;;;;11.15;2.10;;;22.60;41.60;;;;;;5053307;28;20274;-53
2024/02/03 06:14:11;;;;;;;9.80;1.85;;;22.60;41.60;;;;;;5053386;28;20227;-53
2024/02/03 06:16:38;;;;;;;8.70;2.15;;;22.70;41.70;;;;;;5053526;28;20198;-54
2024/02/03 06:19:05;;;;;;;10.65;2.08;;;22.60;41.60;;;;;;5052771;28;20688;-52
2024/02/03 06:21:33;;;;;;;10.02;2.03;;;22.60;41.60;;;;;;5053494;28;20271;-53
2024/02/03 06:24:00;;;;;;;9.63;2.00;;;22.60;41.60;;;;;;5053412;28;20218;-55
2024/02/03 06:26:30;;;;;;;10.07;1.95;;;22.60;41.60;;;;;;5052838;28;20188;-54
2024/02/03 06:28:57;;;;;;;9.63;2.45;;;22.60;41.60;;;;;;5053338;28;20314;-54
2024/02/03 06:31:24;;;;;;;11.35;2.28;;;22.60;41.60;;;;;;5053334;28;20195;-49
2024/02/03 06:33:51;;;;;;;15.20;2.47;;;22.60;41.70;;;;;;5052891;28;20219;-51
2024/02/03 06:36:18;;;;;;;7.85;2.08;;;22.60;41.60;;;;;;5053194;28;20196;-51
2024/02/03 06:38:46;;;;;;;8.73;1.80;;;22.60;41.70;;;;;;5053084;28;20258;-54
2024/02/03 06:41:15;;;;;;;9.13;1.75;;;22.60;41.60;;;;;;5052769;28;20192;-51
2024/02/03 06:43:42;;;;;;;13.30;1.90;;;22.70;41.60;;;;;;5052954;28;20224;-53
2024/02/03 06:46:09;;;;;;;11.20;2.55;;;22.80;41.60;;;;;;5052962;28;20194;-49
2024/02/03 06:48:36;;;;;;;9.93;1.83;;;22.70;42.20;;;;;;5052503;28;20306;-53
2024/02/03 06:51:02;;;;;;;10.82;2.40;;;22.80;41.60;;;;;;5052658;28;20700;-49
2024/02/03 06:53:29;;;;;;;9.23;1.65;;;22.80;41.50;;;;;;5053002;28;20215;-52
2024/02/03 06:55:57;;;;;;;9.52;2.00;;;22.80;41.50;;;;;;5052276;28;20290;-54
2024/02/03 06:58:25;;;;;;;8.02;2.00;;;22.80;41.50;;;;;;5051877;28;20216;-54
2024/02/03 07:00:52;;;;;;;10.18;2.25;;;22.80;41.40;;;;;;5052429;28;20238;-52
2024/02/03 07:03:18;;;;;;;9.95;2.28;;;22.80;41.30;;;;;;5052100;28;20592;-54
2024/02/03 07:05:45;;;;;;;13.13;2.03;;;22.80;41.30;;;;;;5052736;28;20247;-54
2024/02/03 07:08:12;;;;;;;7.80;2.00;;;22.80;41.30;;;;;;5052716;28;20238;-51
2024/02/03 07:10:39;;;;;;;10.98;2.08;;;22.80;41.30;;;;;;5052188;28;20214;-50
2024/02/03 07:13:07;;;;;;;11.43;2.08;;;22.80;41.40;;;;;;5052208;28;20215;-52
2024/02/03 07:15:35;;;;;;;15.02;2.83;;;22.70;41.40;;;;;;5052204;28;20199;-53
2024/02/03 07:18:02;;;;;;;18.83;2.80;;;22.70;41.50;;;;;;5051930;28;20219;-52
2024/02/03 07:20:29;;;;;;;16.83;2.33;;;22.70;41.50;;;;;;5052418;28;20306;-52
2024/02/03 07:22:56;;;;;;;12.10;2.20;;;22.70;42.30;;;;;;5052424;28;20223;-53
2024/02/03 07:25:23;;;;;;;10.95;2.10;;;22.70;41.60;;;;;;5052004;28;20192;-52
2024/02/03 07:27:50;;;;;;;14.55;2.60;;;22.70;41.60;;;;;;5052397;28;20215;-54
2024/02/03 07:30:18;;;;;;;8.45;2.67;;;22.60;41.50;;;;;;5052167;28;20270;-54
2024/02/03 07:32:45;;;;;;;15.38;3.05;;;22.60;42.10;;;;;;5051930;28;20219;-53
2024/02/03 07:35:12;;;;;;;11.70;2.42;;;22.60;41.50;;;;;;5052279;28;20211;-53
2024/02/03 07:37:39;;;;;;;13.55;2.30;;;22.60;41.50;;;;;;5051960;28;20219;-53
2024/02/03 07:40:08;;;;;;;10.70;2.30;;;22.60;41.50;;;;;;5051764;28;20211;-54
2024/02/03 07:42:34;;;;;;;11.93;2.47;;;22.60;41.50;;;;;;5052213;28;20652;-52
2024/02/03 07:45:02;;;;;;;12.82;2.70;;;22.60;41.50;;;;;;5052132;28;20191;-51
2024/02/03 07:47:30;;;;;;;8.77;2.50;;;22.60;41.50;;;;;;5051774;28;20220;-50
2024/02/03 07:49:57;;;;;;;14.35;2.95;;;22.60;41.50;;;;;;5051815;28;20223;-54
2024/02/03 07:52:24;;;;;;;13.48;2.72;;;22.60;41.60;;;;;;5052322;28;20219;-53
2024/02/03 07:54:51;;;;;;;10.77;2.10;;;22.60;41.50;;;;;;5051743;28;20188;-52
2024/02/03 07:57:18;;;;;;;13.57;3.03;;;22.70;41.40;;;;;;5051811;28;20196;-53
2024/02/03 07:59:45;;;;;;;9.07;2.33;;;22.70;41.40;;;;;;5051991;28;20211;-53
2024/02/03 08:02:12;;;;;;;13.35;2.50;;;22.70;41.30;;;;;;5051540;28;20279;-51
2024/02/03 08:04:40;;;;;;;11.63;2.67;;;22.80;41.40;;;;;;5051735;28;20736;-50
2024/02/03 08:07:07;;;;;;;13.82;2.70;;;22.80;41.30;;;;;;5051963;28;20274;-56
2024/02/03 08:09:34;;;;;;;12.85;2.35;;;22.80;41.30;;;;;;5054909;28;20313;-52
2024/02/03 08:12:03;;;;;;;8.90;2.50;;;22.80;41.30;;;;;;5055848;28;20192;-51
2024/02/03 08:14:30;;;;;;;10.10;2.45;;;22.80;41.20;;;;;;5055871;28;20215;-53
2024/02/03 08:16:57;;;;;;;8.10;2.13;;;22.80;41.30;;;;;;5055505;28;20207;-51
2024/02/03 08:19:24;;;;;;;10.38;2.45;;;22.80;41.20;;;;;;5055760;28;20235;-52
2024/02/03 08:21:52;;;;;;;11.55;2.45;;;22.80;41.20;;;;;;5055427;28;20190;-55
2024/02/03 08:24:19;;;;;;;10.23;2.45;;;22.80;41.20;;;;;;5055354;28;20258;-52
2024/02/03 08:26:46;;;;;;;12.90;2.35;;;22.80;41.20;;;;;;5055308;28;20719;-53
2024/02/03 08:29:14;;;;;;;13.40;2.72;;;22.70;41.30;;;;;;5055852;28;20219;-50
2024/02/03 08:31:40;;;;;;;7.97;2.03;;;22.70;41.30;;;;;;5055208;28;20267;-53
2024/02/03 08:34:07;;;;;;;13.65;2.83;;;22.60;41.30;;;;;;5055567;28;20322;-51
2024/02/03 08:36:34;;;;;;;13.85;2.72;;;22.60;41.30;;;;;;5055389;28;20228;-53
2024/02/03 08:39:03;;;;;;;12.38;2.67;;;22.60;41.30;;;;;;5055154;28;20631;-50
2024/02/03 08:41:31;;;;;;;9.50;2.60;;;22.60;41.30;;;;;;5055351;28;20187;-51
2024/02/03 08:43:58;;;;;;;9.98;2.30;;;22.60;41.30;;;;;;5055299;28;20900;-54
2024/02/03 08:46:25;;;;;;;13.43;3.25;;;22.60;41.30;;;;;;5054531;28;20188;-54
2024/02/03 08:48:52;;;;;;;14.50;2.55;;;22.60;41.30;;;;;;5055250;28;20254;-51
2024/02/03 08:51:18;;;;;;;9.60;2.10;;;22.60;41.30;;;;;;5054722;28;20227;-53
2024/02/03 08:53:45;;;;;;;8.60;2.63;;;22.60;41.30;;;;;;5054763;28;20221;-53
2024/02/03 08:56:14;;;;;;;8.48;2.20;;;22.60;41.30;;;;;;5055107;28;20280;-51
2024/02/03 08:58:41;;;;;;;11.98;2.80;;;22.60;42.00;;;;;;5055093;28;20298;-53
2024/02/03 09:01:08;;;;;;;17.45;3.40;;;22.60;41.30;;;;;;5054578;28;20242;-49
2024/02/03 09:03:35;;;;;;;11.98;2.60;;;22.60;41.40;;;;;;5055022;28;20222;-54
2024/02/03 09:06:01;;;;;;;9.82;2.50;;;22.60;41.30;;;;;;5054619;28;20796;-50
2024/02/03 09:08:29;;;;;;;9.95;2.65;;;22.70;41.30;;;;;;5054655;28;20212;-54
2024/02/03 09:10:56;;;;;;;16.88;2.92;;;22.70;41.30;;;;;;5054765;28;20253;-52
2024/02/03 09:13:24;;;;;;;15.68;2.47;;;22.70;41.20;;;;;;5054816;28;20227;-52
2024/02/03 09:15:51;;;;;;;8.18;2.08;;;22.70;41.20;;;;;;5054356;28;20198;-52
2024/02/03 09:18:18;;;;;;;14.13;2.65;;;22.70;41.20;;;;;;5054778;28;20302;-52
2024/02/03 09:20:45;;;;;;;8.77;2.70;;;22.80;41.20;;;;;;5053476;28;20218;-51
2024/02/03 09:23:13;;;;;;;11.18;2.15;;;22.80;41.20;;;;;;5053861;28;20716;-55
2024/02/03 09:25:40;;;;;;;10.20;2.38;;;22.80;41.20;;;;;;5054526;28;20203;-53
2024/02/03 09:28:07;;;;;;;12.55;2.58;;;22.80;41.20;;;;;;5054559;28;20258;-53
2024/02/03 09:30:35;;;;;;;10.63;2.13;;;22.80;41.10;;;;;;5054059;28;20274;-52
2024/02/03 09:33:02;;;;;;;11.93;2.20;;;22.80;41.10;;;;;;5054406;28;20302;-55
2024/02/03 09:35:29;;;;;;;9.25;2.72;;;22.70;41.00;;;;;;5054339;28;20271;-55
2024/02/03 09:37:56;;;;;;;12.40;2.78;;;22.70;41.10;;;;;;5053847;28;20222;-54
2024/02/03 09:40:23;;;;;;;13.75;2.40;;;22.70;41.20;;;;;;5054255;28;20302;-54
2024/02/03 09:42:52;;;;;;;7.65;2.17;;;22.70;41.20;;;;;;5054177;28;20608;-53
2024/02/03 09:45:21;;;;;;;12.43;2.35;;;22.60;41.20;;;;;;5053797;28;20219;-52
2024/02/03 09:47:50;;;;;;;8.05;2.08;;;22.60;41.30;;;;;;5054133;28;20227;-52
2024/02/03 09:50:17;;;;;;;10.40;2.30;;;22.60;41.20;;;;;;5053900;28;20231;-53
2024/02/03 09:52:45;;;;;;;9.25;2.28;;;22.60;41.20;;;;;;5053802;28;20219;-55
2024/02/03 09:55:12;;;;;;;7.82;2.10;;;22.60;41.20;;;;;;5054082;28;20275;-51
2024/02/03 09:57:39;;;;;;;5.63;1.98;;;22.70;41.30;;;;;;5053558;28;20704;-52
2024/02/03 10:00:08;;;;;;;6.65;2.00;;;22.60;41.30;;;;;;5053464;28;20306;-51
2024/02/03 10:02:36;;;;;;;14.05;2.40;;;22.60;41.30;;;;;;5053493;28;20212;-53
2024/02/03 10:05:06;;;;;;;12.35;2.20;;;22.60;41.30;;;;;;5053528;28;20676;-51
2024/02/03 10:07:33;;;;;;;6.80;2.40;;;22.60;41.30;;;;;;5053429;28;20234;-50
2024/02/03 10:10:05;;;;;;;7.60;2.05;;;22.60;41.30;;;;;;5053504;28;20188;-53
2024/02/03 10:12:33;;;;;;;8.68;2.25;;;22.60;41.40;;;;;;5053579;28;20202;-51
2024/02/03 10:15:01;;;;;;;7.70;2.08;;;22.60;41.40;;;;;;5053254;28;20191;-53
2024/02/03 10:17:27;;;;;;;10.20;2.55;;;22.60;41.30;;;;;;5053228;28;20665;-54
2024/02/03 10:19:54;;;;;;;8.77;2.38;;;22.70;41.30;;;;;;5053275;28;20222;-54
2024/02/03 10:22:23;;;;;;;6.82;2.22;;;22.70;41.30;;;;;;5052985;28;20275;-52
2024/02/03 10:24:50;;;;;;;8.00;2.03;;;22.70;41.30;;;;;;5053182;28;20187;-52
2024/02/03 10:27:22;;;;;;;9.43;2.42;;;22.70;41.30;;;;;;5053027;28;20223;-56
2024/02/03 10:29:53;;;;;;;8.30;2.08;;;22.80;41.30;;;;;;5052658;28;20201;-54
2024/02/03 10:32:20;;;;;;;7.05;2.03;;;22.70;41.20;;;;;;5053010;28;20198;-52
2024/02/03 10:34:48;;;;;;;14.10;2.50;;;22.80;41.30;;;;;;5053217;28;20279;-53
2024/02/03 10:37:15;;;;;;;10.50;2.05;;;22.80;41.80;;;;;;5052754;28;20206;-55
2024/02/03 10:39:44;;;;;;;6.30;1.77;;;22.80;41.20;;;;;;5053080;28;20211;-55
2024/02/03 10:42:19;;;;;;;10.25;2.22;;;22.80;41.20;;;;;;5052611;28;20675;-53
2024/02/03 10:44:49;;;;;;;9.63;2.58;;;22.80;41.20;;;;;;5052391;28;20195;-54
2024/02/03 10:47:21;;;;;;;9.27;2.10;;;22.80;41.80;;;;;;5052848;28;20187;-51
2024/02/03 10:49:49;;;;;;;10.63;2.03;;;22.70;41.10;;;;;;5052484;28;20235;-54
2024/02/03 10:52:19;;;;;;;7.82;2.15;;;22.70;41.20;;;;;;5052608;28;20290;-53
2024/02/03 10:54:52;;;;;;;6.93;2.10;;;22.70;41.30;;;;;;5052585;28;20192;-53
2024/02/03 10:57:20;;;;;;;7.35;2.15;;;22.70;41.30;;;;;;5052755;28;20184;-51
2024/02/03 10:59:47;;;;;;;6.97;2.13;;;22.70;41.40;;;;;;5052359;28;20226;-53
2024/02/03 11:02:18;;;;;;;7.43;2.05;;;22.70;41.40;;;;;;5052311;28;20202;-53
2024/02/03 11:04:48;;;;;;;5.30;1.88;;;22.70;41.40;;;;;;5052665;28;20193;-55
2024/02/03 11:07:22;;;;;;;8.75;2.13;;;22.70;41.40;;;;;;5052354;28;20195;-53
2024/02/03 11:09:54;;;;;;;4.88;1.85;;;22.60;41.40;;;;;;5052313;28;20591;-53
2024/02/03 11:12:21;;;;;;;6.65;2.25;;;22.70;41.50;;;;;;5052086;28;20665;-54
2024/02/03 11:14:49;;;;;;;5.88;2.20;;;22.60;41.40;;;;;;5052078;28;20198;-53
2024/02/03 11:17:16;;;;;;;9.05;2.15;;;22.60;41.50;;;;;;5052204;28;20188;-53
2024/02/03 11:19:45;;;;;;;9.38;2.03;;;22.60;41.50;;;;;;5052632;28;20298;-51
2024/02/03 11:22:15;;;;;;;7.72;2.20;;;22.60;41.50;;;;;;5051724;28;20230;-52
2024/02/03 11:24:44;;;;;;;6.50;1.77;;;22.60;41.60;;;;;;5052000;28;20715;-55
2024/02/03 11:27:12;;;;;;;11.15;2.10;;;22.60;41.60;;;;;;5052391;28;20198;-50
2024/02/03 11:29:39;;;;;;;11.85;2.08;;;22.70;41.60;;;;;;5052122;28;20215;-51
2024/02/03 11:32:07;;;;;;;10.73;1.98;;;22.70;41.60;;;;;;5051960;28;20676;-53
2024/02/03 11:34:37;;;;;;;5.68;2.00;;;22.70;41.50;;;;;;5051891;28;20709;-54
2024/02/03 11:37:05;;;;;;;8.05;2.08;;;22.80;41.50;;;;;;5051883;28;20195;-53
2024/02/03 11:39:33;;;;;;;11.05;2.08;;;22.80;41.50;;;;;;5052544;28;20226;-54
2024/02/03 11:42:00;;;;;;;8.15;1.90;;;22.80;41.50;;;;;;5052195;28;20251;-53
2024/02/03 11:44:35;;;;;;;8.10;2.17;;;22.80;41.40;;;;;;5058155;28;20302;-53
2024/02/03 11:47:03;;;;;;;7.55;2.15;;;22.80;41.40;;;;;;5058426;28;20253;-55
2024/02/03 11:49:30;;;;;;;6.82;1.98;;;22.80;41.40;;;;;;5058568;28;20238;-53
2024/02/03 11:52:01;;;;;;;8.98;2.13;;;22.80;41.30;;;;;;5058313;28;20726;-53
2024/02/03 11:54:28;;;;;;;8.25;2.42;;;22.80;41.30;;;;;;5058370;28;20257;-51
2024/02/03 11:56:56;;;;;;;10.15;2.63;;;22.80;41.30;;;;;;5058803;28;20191;-50
2024/02/03 11:59:28;;;;;;;8.48;2.25;;;22.80;41.40;;;;;;5057981;28;20591;-54
2024/02/03 12:01:55;;;;;;;6.30;1.90;;;22.70;41.40;;;;;;5058615;28;20255;-53
2024/02/03 12:04:23;;;;;;;5.55;1.95;;;22.80;41.50;;;;;;5058525;28;20222;-53
2024/02/03 12:06:50;;;;;;;6.78;2.05;;;22.70;42.10;;;;;;5058250;28;20560;-52
2024/02/03 12:09:18;;;;;;;5.53;1.70;;;22.70;42.20;;;;;;5058838;28;20219;-52
2024/02/03 12:11:46;;;;;;;6.72;2.30;;;22.70;41.60;;;;;;5058544;28;20219;-54
2024/02/03 12:14:13;;;;;;;10.18;2.90;;;22.60;41.50;;;;;;5058170;28;20747;-52
2024/02/03 12:16:43;;;;;;;8.40;2.47;;;22.70;42.30;;;;;;5058581;28;20271;-54
2024/02/03 12:19:10;;;;;;;8.73;1.92;;;22.70;41.60;;;;;;5058661;28;20219;-50
2024/02/03 12:21:38;;;;;;;5.45;1.98;;;22.70;41.60;;;;;;5057732;28;20219;-53
2024/02/03 12:24:06;;;;;;;5.25;1.85;;;22.60;41.60;;;;;;5058703;28;20234;-52
2024/02/03 12:26:33;;;;;;;7.40;2.35;;;22.60;41.60;;;;;;5058507;28;20210;-51
2024/02/03 12:29:01;;;;;;;8.73;2.22;;;22.60;41.60;;;;;;5058020;28;20225;-54
2024/02/03 12:31:28;;;;;;;7.68;2.08;;;22.60;41.60;;;;;;5058431;28;20618;-53
2024/02/03 12:33:56;;;;;;;8.73;1.83;;;22.60;41.70;;;;;;5058506;28;20310;-52
2024/02/03 12:36:24;;;;;;;10.32;1.85;;;22.60;41.70;;;;;;5057762;28;20210;-53
2024/02/03 12:38:52;;;;;;;7.65;2.15;;;22.60;41.70;;;;;;5058342;28;20310;-54
2024/02/03 12:41:19;;;;;;;8.60;1.70;;;22.60;42.40;;;;;;5058299;28;20215;-52
2024/02/03 12:43:47;;;;;;;5.82;2.25;;;22.60;41.70;;;;;;5058143;28;20306;-51